sensor_id;sensor_type;location;lat;lon;timestamp;P1;durP1;ratioP1;P2;durP2;ratioP2
67456;SDS011;54319;52.038;4.640;2023-03-21T00:02:21;22.75;;;13.65;;
67456;SDS011;54319;52.038;4.640;2023-03-21T00:04:49;24.40;;;13.97;;
67456;SDS011;54319;52.038;4.640;2023-03-21T00:07:16;24.88;;;14.18;;
67456;SDS011;54319;52.038;4.640;2023-03-21T00:09:42;23.80;;;13.82;;
67456;SDS011;54319;52.038;4.640;2023-03-21T00:12:09;24.77;;;13.43;;
67456;SDS011;54319;52.038;4.640;2023-03-21T00:14:36;25.48;;;14.95;;
67456;SDS011;54319;52.038;4.640;2023-03-21T00:17:03;21.57;;;14.10;;
67456;SDS011;54319;52.038;4.640;2023-03-21T00:19:30;26.57;;;13.80;;
67456;SDS011;54319;52.038;4.640;2023-03-21T00:21:58;26.92;;;14.18;;
67456;SDS011;54319;52.038;4.640;2023-03-21T00:24:26;23.42;;;14.63;;
67456;SDS011;54319;52.038;4.640;2023-03-21T00:26:52;27.98;;;14.48;;
67456;SDS011;54319;52.038;4.640;2023-03-21T00:29:19;23.92;;;14.07;;
67456;SDS011;54319;52.038;4.640;2023-03-21T00:31:46;26.55;;;14.35;;
67456;SDS011;54319;52.038;4.640;2023-03-21T00:34:12;25.50;;;14.60;;
67456;SDS011;54319;52.038;4.640;2023-03-21T00:36:39;28.30;;;14.30;;
67456;SDS011;54319;52.038;4.640;2023-03-21T00:39:07;25.95;;;14.55;;
67456;SDS011;54319;52.038;4.640;2023-03-21T00:41:35;26.13;;;14.57;;
67456;SDS011;54319;52.038;4.640;2023-03-21T00:44:01;25.73;;;14.05;;
67456;SDS011;54319;52.038;4.640;2023-03-21T00:46:28;27.73;;;14.38;;
67456;SDS011;54319;52.038;4.640;2023-03-21T00:48:54;25.53;;;13.90;;
67456;SDS011;54319;52.038;4.640;2023-03-21T00:51:22;25.65;;;14.60;;
67456;SDS011;54319;52.038;4.640;2023-03-21T00:53:50;21.05;;;12.88;;
67456;SDS011;54319;52.038;4.640;2023-03-21T00:56:19;21.23;;;12.52;;
67456;SDS011;54319;52.038;4.640;2023-03-21T00:58:46;23.63;;;12.85;;
67456;SDS011;54319;52.038;4.640;2023-03-21T01:01:13;23.92;;;13.38;;
67456;SDS011;54319;52.038;4.640;2023-03-21T01:03:39;23.67;;;13.63;;
67456;SDS011;54319;52.038;4.640;2023-03-21T01:06:12;24.20;;;14.70;;
67456;SDS011;54319;52.038;4.640;2023-03-21T01:08:45;27.25;;;14.15;;
67456;SDS011;54319;52.038;4.640;2023-03-21T01:11:14;23.48;;;14.05;;
67456;SDS011;54319;52.038;4.640;2023-03-21T01:13:44;24.10;;;13.80;;
67456;SDS011;54319;52.038;4.640;2023-03-21T01:16:11;29.45;;;15.00;;
67456;SDS011;54319;52.038;4.640;2023-03-21T01:18:38;24.20;;;14.73;;
67456;SDS011;54319;52.038;4.640;2023-03-21T01:21:07;25.15;;;14.15;;
67456;SDS011;54319;52.038;4.640;2023-03-21T01:23:37;24.77;;;14.93;;
67456;SDS011;54319;52.038;4.640;2023-03-21T01:26:05;26.73;;;16.30;;
67456;SDS011;54319;52.038;4.640;2023-03-21T01:28:32;30.55;;;16.10;;
67456;SDS011;54319;52.038;4.640;2023-03-21T01:33:29;26.50;;;14.93;;
67456;SDS011;54319;52.038;4.640;2023-03-21T01:35:56;29.10;;;15.70;;
67456;SDS011;54319;52.038;4.640;2023-03-21T01:38:23;35.22;;;15.95;;
67456;SDS011;54319;52.038;4.640;2023-03-21T01:40:50;33.70;;;16.42;;
67456;SDS011;54319;52.038;4.640;2023-03-21T01:43:19;32.28;;;15.93;;
67456;SDS011;54319;52.038;4.640;2023-03-21T01:46:07;31.30;;;16.02;;
67456;SDS011;54319;52.038;4.640;2023-03-21T01:48:45;30.13;;;14.75;;
67456;SDS011;54319;52.038;4.640;2023-03-21T01:51:16;36.90;;;15.52;;
67456;SDS011;54319;52.038;4.640;2023-03-21T01:53:44;32.28;;;16.25;;
67456;SDS011;54319;52.038;4.640;2023-03-21T01:56:13;32.75;;;14.95;;
67456;SDS011;54319;52.038;4.640;2023-03-21T01:58:44;31.55;;;14.93;;
67456;SDS011;54319;52.038;4.640;2023-03-21T02:03:41;29.05;;;15.50;;
67456;SDS011;54319;52.038;4.640;2023-03-21T02:06:17;28.00;;;14.00;;
67456;SDS011;54319;52.038;4.640;2023-03-21T02:08:49;33.50;;;15.27;;
67456;SDS011;54319;52.038;4.640;2023-03-21T02:11:16;32.72;;;15.15;;
67456;SDS011;54319;52.038;4.640;2023-03-21T02:13:44;34.65;;;14.15;;
67456;SDS011;54319;52.038;4.640;2023-03-21T02:16:11;26.73;;;14.18;;
67456;SDS011;54319;52.038;4.640;2023-03-21T02:18:46;25.90;;;11.77;;
67456;SDS011;54319;52.038;4.640;2023-03-21T02:21:34;23.65;;;12.52;;
67456;SDS011;54319;52.038;4.640;2023-03-21T02:24:26;20.67;;;11.20;;
67456;SDS011;54319;52.038;4.640;2023-03-21T02:27:14;22.95;;;11.55;;
67456;SDS011;54319;52.038;4.640;2023-03-21T02:29:57;21.83;;;10.60;;
67456;SDS011;54319;52.038;4.640;2023-03-21T02:35:24;22.80;;;10.45;;
67456;SDS011;54319;52.038;4.640;2023-03-21T02:38:02;19.90;;;10.30;;
67456;SDS011;54319;52.038;4.640;2023-03-21T02:40:35;16.98;;;10.55;;
67456;SDS011;54319;52.038;4.640;2023-03-21T02:43:08;20.90;;;9.68;;
67456;SDS011;54319;52.038;4.640;2023-03-21T02:45:41;20.15;;;10.13;;
67456;SDS011;54319;52.038;4.640;2023-03-21T02:48:13;23.10;;;10.10;;
67456;SDS011;54319;52.038;4.640;2023-03-21T02:50:45;22.15;;;10.77;;
67456;SDS011;54319;52.038;4.640;2023-03-21T02:53:17;15.80;;;10.18;;
67456;SDS011;54319;52.038;4.640;2023-03-21T02:55:45;22.27;;;10.48;;
67456;SDS011;54319;52.038;4.640;2023-03-21T02:58:14;19.65;;;10.48;;
67456;SDS011;54319;52.038;4.640;2023-03-21T03:00:43;21.73;;;10.25;;
67456;SDS011;54319;52.038;4.640;2023-03-21T03:05:40;24.40;;;10.30;;
67456;SDS011;54319;52.038;4.640;2023-03-21T03:08:18;20.17;;;10.45;;
67456;SDS011;54319;52.038;4.640;2023-03-21T03:10:58;21.80;;;9.77;;
67456;SDS011;54319;52.038;4.640;2023-03-21T03:13:47;22.48;;;10.68;;
67456;SDS011;54319;52.038;4.640;2023-03-21T03:16:23;22.40;;;11.75;;
67456;SDS011;54319;52.038;4.640;2023-03-21T03:19:01;21.05;;;10.98;;
67456;SDS011;54319;52.038;4.640;2023-03-21T03:21:31;24.05;;;11.30;;
67456;SDS011;54319;52.038;4.640;2023-03-21T03:24:07;19.55;;;10.85;;
67456;SDS011;54319;52.038;4.640;2023-03-21T03:26:37;22.55;;;11.43;;
67456;SDS011;54319;52.038;4.640;2023-03-21T03:29:09;21.42;;;11.25;;
67456;SDS011;54319;52.038;4.640;2023-03-21T03:31:41;23.65;;;11.07;;
67456;SDS011;54319;52.038;4.640;2023-03-21T03:34:12;24.27;;;10.57;;
67456;SDS011;54319;52.038;4.640;2023-03-21T03:36:43;21.77;;;10.13;;
67456;SDS011;54319;52.038;4.640;2023-03-21T03:39:17;20.30;;;10.27;;
67456;SDS011;54319;52.038;4.640;2023-03-21T03:41:44;23.30;;;9.95;;
67456;SDS011;54319;52.038;4.640;2023-03-21T03:44:12;19.35;;;9.27;;
67456;SDS011;54319;52.038;4.640;2023-03-21T03:46:40;22.73;;;9.82;;
67456;SDS011;54319;52.038;4.640;2023-03-21T03:49:13;16.92;;;8.93;;
67456;SDS011;54319;52.038;4.640;2023-03-21T03:51:45;21.92;;;9.73;;
67456;SDS011;54319;52.038;4.640;2023-03-21T03:54:19;20.73;;;9.90;;
67456;SDS011;54319;52.038;4.640;2023-03-21T03:56:51;22.48;;;10.00;;
67456;SDS011;54319;52.038;4.640;2023-03-21T03:59:19;23.15;;;10.60;;
67456;SDS011;54319;52.038;4.640;2023-03-21T04:01:47;20.13;;;9.60;;
67456;SDS011;54319;52.038;4.640;2023-03-21T04:04:14;21.13;;;9.47;;
67456;SDS011;54319;52.038;4.640;2023-03-21T04:06:41;18.40;;;9.45;;
67456;SDS011;54319;52.038;4.640;2023-03-21T04:09:09;17.75;;;8.45;;
67456;SDS011;54319;52.038;4.640;2023-03-21T04:11:37;15.83;;;8.20;;
67456;SDS011;54319;52.038;4.640;2023-03-21T04:14:04;13.77;;;8.43;;
67456;SDS011;54319;52.038;4.640;2023-03-21T04:16:30;19.45;;;8.35;;
67456;SDS011;54319;52.038;4.640;2023-03-21T04:18:57;22.13;;;8.77;;
67456;SDS011;54319;52.038;4.640;2023-03-21T04:21:24;21.52;;;8.85;;
67456;SDS011;54319;52.038;4.640;2023-03-21T04:23:51;14.30;;;8.00;;
67456;SDS011;54319;52.038;4.640;2023-03-21T04:26:18;20.15;;;8.30;;
67456;SDS011;54319;52.038;4.640;2023-03-21T04:28:48;16.48;;;6.95;;
67456;SDS011;54319;52.038;4.640;2023-03-21T04:31:14;21.05;;;7.57;;
67456;SDS011;54319;52.038;4.640;2023-03-21T04:36:09;20.20;;;7.78;;
67456;SDS011;54319;52.038;4.640;2023-03-21T04:38:51;25.05;;;9.05;;
67456;SDS011;54319;52.038;4.640;2023-03-21T04:41:19;18.05;;;9.15;;
67456;SDS011;54319;52.038;4.640;2023-03-21T04:43:48;26.15;;;10.10;;
67456;SDS011;54319;52.038;4.640;2023-03-21T04:46:15;22.40;;;9.95;;
67456;SDS011;54319;52.038;4.640;2023-03-21T04:48:41;19.02;;;10.75;;
67456;SDS011;54319;52.038;4.640;2023-03-21T04:51:08;20.88;;;11.15;;
67456;SDS011;54319;52.038;4.640;2023-03-21T04:53:34;20.35;;;10.98;;
67456;SDS011;54319;52.038;4.640;2023-03-21T04:56:02;22.17;;;11.25;;
67456;SDS011;54319;52.038;4.640;2023-03-21T04:58:29;23.65;;;11.05;;
67456;SDS011;54319;52.038;4.640;2023-03-21T05:00:57;23.48;;;11.57;;
67456;SDS011;54319;52.038;4.640;2023-03-21T05:03:26;20.23;;;11.63;;
67456;SDS011;54319;52.038;4.640;2023-03-21T05:05:58;23.38;;;11.90;;
67456;SDS011;54319;52.038;4.640;2023-03-21T05:08:25;26.50;;;12.93;;
67456;SDS011;54319;52.038;4.640;2023-03-21T05:10:53;25.63;;;12.95;;
67456;SDS011;54319;52.038;4.640;2023-03-21T05:13:20;26.75;;;12.15;;
67456;SDS011;54319;52.038;4.640;2023-03-21T05:15:46;22.55;;;12.00;;
67456;SDS011;54319;52.038;4.640;2023-03-21T05:18:14;26.55;;;13.07;;
67456;SDS011;54319;52.038;4.640;2023-03-21T05:20:49;24.73;;;12.68;;
67456;SDS011;54319;52.038;4.640;2023-03-21T05:23:18;26.75;;;12.48;;
67456;SDS011;54319;52.038;4.640;2023-03-21T05:25:45;26.73;;;13.20;;
67456;SDS011;54319;52.038;4.640;2023-03-21T05:28:11;26.65;;;13.43;;
67456;SDS011;54319;52.038;4.640;2023-03-21T05:30:38;24.20;;;13.73;;
67456;SDS011;54319;52.038;4.640;2023-03-21T05:33:04;25.25;;;13.85;;
67456;SDS011;54319;52.038;4.640;2023-03-21T05:35:32;30.88;;;15.05;;
67456;SDS011;54319;52.038;4.640;2023-03-21T05:37:59;25.08;;;13.90;;
67456;SDS011;54319;52.038;4.640;2023-03-21T05:40:26;25.83;;;13.40;;
67456;SDS011;54319;52.038;4.640;2023-03-21T05:42:52;28.45;;;13.23;;
67456;SDS011;54319;52.038;4.640;2023-03-21T05:45:20;28.00;;;14.37;;
67456;SDS011;54319;52.038;4.640;2023-03-21T05:50:13;23.10;;;12.37;;
67456;SDS011;54319;52.038;4.640;2023-03-21T05:52:41;28.88;;;13.27;;
67456;SDS011;54319;52.038;4.640;2023-03-21T05:55:08;27.95;;;12.95;;
67456;SDS011;54319;52.038;4.640;2023-03-21T05:57:35;24.77;;;13.00;;
67456;SDS011;54319;52.038;4.640;2023-03-21T06:00:05;28.70;;;12.73;;
67456;SDS011;54319;52.038;4.640;2023-03-21T06:02:33;24.95;;;13.05;;
67456;SDS011;54319;52.038;4.640;2023-03-21T06:05:00;28.77;;;13.30;;
67456;SDS011;54319;52.038;4.640;2023-03-21T06:07:27;24.98;;;11.70;;
67456;SDS011;54319;52.038;4.640;2023-03-21T06:09:55;25.17;;;12.75;;
67456;SDS011;54319;52.038;4.640;2023-03-21T06:12:21;27.50;;;12.75;;
67456;SDS011;54319;52.038;4.640;2023-03-21T06:14:48;22.52;;;12.40;;
67456;SDS011;54319;52.038;4.640;2023-03-21T06:17:14;21.60;;;12.00;;
67456;SDS011;54319;52.038;4.640;2023-03-21T06:19:41;27.43;;;11.93;;
67456;SDS011;54319;52.038;4.640;2023-03-21T06:22:08;35.95;;;11.95;;
67456;SDS011;54319;52.038;4.640;2023-03-21T06:24:35;24.42;;;11.60;;
67456;SDS011;54319;52.038;4.640;2023-03-21T06:27:03;23.38;;;10.93;;
67456;SDS011;54319;52.038;4.640;2023-03-21T06:29:30;23.48;;;11.35;;
67456;SDS011;54319;52.038;4.640;2023-03-21T06:31:57;25.30;;;10.97;;
67456;SDS011;54319;52.038;4.640;2023-03-21T06:34:23;20.83;;;10.47;;
67456;SDS011;54319;52.038;4.640;2023-03-21T06:36:50;22.98;;;11.23;;
67456;SDS011;54319;52.038;4.640;2023-03-21T06:39:18;21.15;;;10.35;;
67456;SDS011;54319;52.038;4.640;2023-03-21T06:41:45;19.90;;;9.90;;
67456;SDS011;54319;52.038;4.640;2023-03-21T06:44:14;20.30;;;10.23;;
67456;SDS011;54319;52.038;4.640;2023-03-21T06:46:41;18.40;;;9.32;;
67456;SDS011;54319;52.038;4.640;2023-03-21T06:49:07;18.02;;;9.52;;
67456;SDS011;54319;52.038;4.640;2023-03-21T06:51:34;22.50;;;10.23;;
67456;SDS011;54319;52.038;4.640;2023-03-21T06:54:01;22.55;;;9.95;;
67456;SDS011;54319;52.038;4.640;2023-03-21T06:56:28;18.58;;;9.93;;
67456;SDS011;54319;52.038;4.640;2023-03-21T06:58:54;16.00;;;9.03;;
67456;SDS011;54319;52.038;4.640;2023-03-21T07:01:23;20.02;;;9.23;;
67456;SDS011;54319;52.038;4.640;2023-03-21T07:03:51;20.02;;;9.20;;
67456;SDS011;54319;52.038;4.640;2023-03-21T07:06:18;19.63;;;9.23;;
67456;SDS011;54319;52.038;4.640;2023-03-21T07:08:45;19.13;;;8.73;;
67456;SDS011;54319;52.038;4.640;2023-03-21T07:11:12;19.60;;;9.00;;
67456;SDS011;54319;52.038;4.640;2023-03-21T07:13:39;17.83;;;9.20;;
67456;SDS011;54319;52.038;4.640;2023-03-21T07:16:06;18.70;;;8.73;;
67456;SDS011;54319;52.038;4.640;2023-03-21T07:18:35;17.98;;;8.55;;
67456;SDS011;54319;52.038;4.640;2023-03-21T07:21:02;21.35;;;8.75;;
67456;SDS011;54319;52.038;4.640;2023-03-21T07:23:29;17.42;;;8.63;;
67456;SDS011;54319;52.038;4.640;2023-03-21T07:25:55;18.07;;;8.27;;
67456;SDS011;54319;52.038;4.640;2023-03-21T07:28:22;20.02;;;9.45;;
67456;SDS011;54319;52.038;4.640;2023-03-21T07:30:53;19.02;;;8.75;;
67456;SDS011;54319;52.038;4.640;2023-03-21T07:33:22;16.10;;;8.05;;
67456;SDS011;54319;52.038;4.640;2023-03-21T07:35:52;19.75;;;8.50;;
67456;SDS011;54319;52.038;4.640;2023-03-21T07:38:21;19.73;;;8.07;;
67456;SDS011;54319;52.038;4.640;2023-03-21T07:40:48;20.07;;;9.13;;
67456;SDS011;54319;52.038;4.640;2023-03-21T07:43:15;14.40;;;8.23;;
67456;SDS011;54319;52.038;4.640;2023-03-21T07:45:43;16.90;;;8.32;;
67456;SDS011;54319;52.038;4.640;2023-03-21T07:48:10;20.10;;;8.82;;
67456;SDS011;54319;52.038;4.640;2023-03-21T07:50:38;24.02;;;8.82;;
67456;SDS011;54319;52.038;4.640;2023-03-21T07:53:07;17.33;;;8.27;;
67456;SDS011;54319;52.038;4.640;2023-03-21T07:55:34;21.40;;;9.02;;
67456;SDS011;54319;52.038;4.640;2023-03-21T07:58:00;19.42;;;8.50;;
67456;SDS011;54319;52.038;4.640;2023-03-21T08:00:28;17.63;;;8.20;;
67456;SDS011;54319;52.038;4.640;2023-03-21T08:02:55;16.00;;;8.85;;
67456;SDS011;54319;52.038;4.640;2023-03-21T08:05:24;19.35;;;8.52;;
67456;SDS011;54319;52.038;4.640;2023-03-21T08:07:52;25.00;;;8.75;;
67456;SDS011;54319;52.038;4.640;2023-03-21T08:10:20;14.55;;;7.88;;
67456;SDS011;54319;52.038;4.640;2023-03-21T08:12:46;18.00;;;7.43;;
67456;SDS011;54319;52.038;4.640;2023-03-21T08:15:13;17.33;;;9.17;;
67456;SDS011;54319;52.038;4.640;2023-03-21T08:17:41;17.42;;;8.00;;
67456;SDS011;54319;52.038;4.640;2023-03-21T08:20:10;20.75;;;8.18;;
67456;SDS011;54319;52.038;4.640;2023-03-21T08:22:40;20.00;;;8.20;;
67456;SDS011;54319;52.038;4.640;2023-03-21T08:25:10;22.23;;;8.18;;
67456;SDS011;54319;52.038;4.640;2023-03-21T08:27:40;14.35;;;8.32;;
67456;SDS011;54319;52.038;4.640;2023-03-21T08:30:07;13.85;;;7.15;;
67456;SDS011;54319;52.038;4.640;2023-03-21T08:32:36;19.33;;;7.85;;
67456;SDS011;54319;52.038;4.640;2023-03-21T08:35:03;13.07;;;7.07;;
67456;SDS011;54319;52.038;4.640;2023-03-21T08:37:34;16.70;;;6.38;;
67456;SDS011;54319;52.038;4.640;2023-03-21T08:40:01;12.82;;;6.65;;
67456;SDS011;54319;52.038;4.640;2023-03-21T08:42:31;15.00;;;6.03;;
67456;SDS011;54319;52.038;4.640;2023-03-21T08:44:59;12.05;;;5.88;;
67456;SDS011;54319;52.038;4.640;2023-03-21T08:47:25;11.68;;;4.97;;
67456;SDS011;54319;52.038;4.640;2023-03-21T08:49:52;14.05;;;5.50;;
67456;SDS011;54319;52.038;4.640;2023-03-21T08:52:18;14.63;;;5.30;;
67456;SDS011;54319;52.038;4.640;2023-03-21T08:54:45;11.45;;;5.38;;
67456;SDS011;54319;52.038;4.640;2023-03-21T08:57:12;10.27;;;5.53;;
67456;SDS011;54319;52.038;4.640;2023-03-21T08:59:39;12.10;;;5.65;;
67456;SDS011;54319;52.038;4.640;2023-03-21T09:02:08;11.90;;;4.95;;
67456;SDS011;54319;52.038;4.640;2023-03-21T09:04:35;12.15;;;6.00;;
67456;SDS011;54319;52.038;4.640;2023-03-21T09:07:02;10.57;;;5.40;;
67456;SDS011;54319;52.038;4.640;2023-03-21T09:09:30;10.75;;;5.15;;
67456;SDS011;54319;52.038;4.640;2023-03-21T09:11:56;11.13;;;5.40;;
67456;SDS011;54319;52.038;4.640;2023-03-21T09:14:23;13.93;;;5.93;;
67456;SDS011;54319;52.038;4.640;2023-03-21T09:16:50;13.60;;;6.47;;
67456;SDS011;54319;52.038;4.640;2023-03-21T09:19:18;14.17;;;5.93;;
67456;SDS011;54319;52.038;4.640;2023-03-21T09:21:45;11.13;;;6.28;;
67456;SDS011;54319;52.038;4.640;2023-03-21T09:24:13;14.10;;;6.75;;
67456;SDS011;54319;52.038;4.640;2023-03-21T09:26:42;19.45;;;7.05;;
67456;SDS011;54319;52.038;4.640;2023-03-21T09:29:09;14.85;;;6.50;;
67456;SDS011;54319;52.038;4.640;2023-03-21T09:31:35;12.33;;;6.57;;
67456;SDS011;54319;52.038;4.640;2023-03-21T09:34:03;15.43;;;6.70;;
67456;SDS011;54319;52.038;4.640;2023-03-21T09:36:32;19.80;;;6.73;;
67456;SDS011;54319;52.038;4.640;2023-03-21T09:38:59;18.50;;;7.55;;
67456;SDS011;54319;52.038;4.640;2023-03-21T09:41:30;10.93;;;6.45;;
67456;SDS011;54319;52.038;4.640;2023-03-21T09:47:03;12.27;;;6.95;;
67456;SDS011;54319;52.038;4.640;2023-03-21T09:49:39;11.63;;;6.30;;
67456;SDS011;54319;52.038;4.640;2023-03-21T09:52:12;12.50;;;6.60;;
67456;SDS011;54319;52.038;4.640;2023-03-21T09:54:44;15.32;;;6.85;;
67456;SDS011;54319;52.038;4.640;2023-03-21T09:57:14;12.43;;;6.65;;
67456;SDS011;54319;52.038;4.640;2023-03-21T09:59:50;17.88;;;6.70;;
67456;SDS011;54319;52.038;4.640;2023-03-21T10:02:25;12.40;;;7.15;;
67456;SDS011;54319;52.038;4.640;2023-03-21T10:05:01;17.17;;;7.32;;
67456;SDS011;54319;52.038;4.640;2023-03-21T10:07:37;18.58;;;7.07;;
67456;SDS011;54319;52.038;4.640;2023-03-21T10:10:08;15.18;;;6.85;;
67456;SDS011;54319;52.038;4.640;2023-03-21T10:12:41;15.63;;;6.72;;
67456;SDS011;54319;52.038;4.640;2023-03-21T10:15:10;13.90;;;6.85;;
67456;SDS011;54319;52.038;4.640;2023-03-21T10:17:42;11.43;;;6.35;;
67456;SDS011;54319;52.038;4.640;2023-03-21T10:20:11;16.63;;;7.43;;
67456;SDS011;54319;52.038;4.640;2023-03-21T10:22:43;13.43;;;6.88;;
67456;SDS011;54319;52.038;4.640;2023-03-21T10:25:13;16.77;;;6.78;;
67456;SDS011;54319;52.038;4.640;2023-03-21T10:27:42;17.92;;;7.20;;
67456;SDS011;54319;52.038;4.640;2023-03-21T10:30:24;15.20;;;7.30;;
67456;SDS011;54319;52.038;4.640;2023-03-21T10:32:55;15.82;;;6.72;;
67456;SDS011;54319;52.038;4.640;2023-03-21T10:35:26;15.55;;;7.25;;
67456;SDS011;54319;52.038;4.640;2023-03-21T10:37:55;12.93;;;6.80;;
67456;SDS011;54319;52.038;4.640;2023-03-21T10:40:22;14.45;;;6.63;;
67456;SDS011;54319;52.038;4.640;2023-03-21T10:42:48;16.03;;;6.43;;
67456;SDS011;54319;52.038;4.640;2023-03-21T10:45:16;13.18;;;6.40;;
67456;SDS011;54319;52.038;4.640;2023-03-21T10:47:45;18.40;;;6.00;;
67456;SDS011;54319;52.038;4.640;2023-03-21T10:50:14;11.02;;;6.35;;
67456;SDS011;54319;52.038;4.640;2023-03-21T10:52:44;9.20;;;5.43;;
67456;SDS011;54319;52.038;4.640;2023-03-21T10:55:17;12.95;;;6.18;;
67456;SDS011;54319;52.038;4.640;2023-03-21T10:57:52;13.18;;;6.13;;
67456;SDS011;54319;52.038;4.640;2023-03-21T11:00:23;9.02;;;5.57;;
67456;SDS011;54319;52.038;4.640;2023-03-21T11:02:53;15.43;;;6.13;;
67456;SDS011;54319;52.038;4.640;2023-03-21T11:05:21;13.77;;;6.53;;
67456;SDS011;54319;52.038;4.640;2023-03-21T11:08:01;11.95;;;6.72;;
67456;SDS011;54319;52.038;4.640;2023-03-21T11:10:32;18.73;;;7.22;;
67456;SDS011;54319;52.038;4.640;2023-03-21T11:13:04;11.95;;;6.90;;
67456;SDS011;54319;52.038;4.640;2023-03-21T11:15:37;12.77;;;6.63;;
67456;SDS011;54319;52.038;4.640;2023-03-21T11:18:13;14.05;;;6.88;;
67456;SDS011;54319;52.038;4.640;2023-03-21T11:20:43;15.10;;;6.70;;
67456;SDS011;54319;52.038;4.640;2023-03-21T11:23:14;10.00;;;6.65;;
67456;SDS011;54319;52.038;4.640;2023-03-21T11:25:42;16.80;;;6.10;;
67456;SDS011;54319;52.038;4.640;2023-03-21T11:28:13;17.23;;;6.60;;
67456;SDS011;54319;52.038;4.640;2023-03-21T11:30:48;10.18;;;5.68;;
67456;SDS011;54319;52.038;4.640;2023-03-21T11:33:18;13.65;;;6.18;;
67456;SDS011;54319;52.038;4.640;2023-03-21T11:35:57;8.90;;;5.78;;
67456;SDS011;54319;52.038;4.640;2023-03-21T11:38:25;13.40;;;6.45;;
67456;SDS011;54319;52.038;4.640;2023-03-21T11:40:57;12.13;;;6.18;;
67456;SDS011;54319;52.038;4.640;2023-03-21T11:43:25;13.85;;;6.22;;
67456;SDS011;54319;52.038;4.640;2023-03-21T11:45:54;10.30;;;6.10;;
67456;SDS011;54319;52.038;4.640;2023-03-21T11:48:22;10.60;;;5.70;;
67456;SDS011;54319;52.038;4.640;2023-03-21T11:50:51;11.43;;;6.35;;
67456;SDS011;54319;52.038;4.640;2023-03-21T11:53:28;11.30;;;6.10;;
67456;SDS011;54319;52.038;4.640;2023-03-21T11:56:14;13.50;;;6.25;;
67456;SDS011;54319;52.038;4.640;2023-03-21T11:58:55;12.95;;;6.47;;
67456;SDS011;54319;52.038;4.640;2023-03-21T12:01:34;9.30;;;6.00;;
67456;SDS011;54319;52.038;4.640;2023-03-21T12:04:12;11.30;;;5.57;;
67456;SDS011;54319;52.038;4.640;2023-03-21T12:06:47;16.42;;;6.47;;
67456;SDS011;54319;52.038;4.640;2023-03-21T12:09:30;12.15;;;6.13;;
67456;SDS011;54319;52.038;4.640;2023-03-21T12:12:11;12.38;;;6.10;;
67456;SDS011;54319;52.038;4.640;2023-03-21T12:14:46;12.82;;;5.85;;
67456;SDS011;54319;52.038;4.640;2023-03-21T12:17:23;10.00;;;5.57;;
67456;SDS011;54319;52.038;4.640;2023-03-21T12:20:02;12.75;;;6.25;;
67456;SDS011;54319;52.038;4.640;2023-03-21T12:22:41;12.02;;;5.43;;
67456;SDS011;54319;52.038;4.640;2023-03-21T12:27:49;10.50;;;5.10;;
67456;SDS011;54319;52.038;4.640;2023-03-21T12:30:32;11.38;;;5.07;;
67456;SDS011;54319;52.038;4.640;2023-03-21T12:33:13;8.40;;;5.25;;
67456;SDS011;54319;52.038;4.640;2023-03-21T12:35:53;11.57;;;5.53;;
67456;SDS011;54319;52.038;4.640;2023-03-21T12:38:31;10.55;;;5.60;;
67456;SDS011;54319;52.038;4.640;2023-03-21T12:41:11;19.88;;;6.68;;
67456;SDS011;54319;52.038;4.640;2023-03-21T12:43:49;9.95;;;5.47;;
67456;SDS011;54319;52.038;4.640;2023-03-21T12:46:23;10.15;;;5.25;;
67456;SDS011;54319;52.038;4.640;2023-03-21T12:48:56;12.15;;;5.18;;
67456;SDS011;54319;52.038;4.640;2023-03-21T12:51:27;15.43;;;6.03;;
67456;SDS011;54319;52.038;4.640;2023-03-21T12:54:02;13.45;;;5.78;;
67456;SDS011;54319;52.038;4.640;2023-03-21T12:56:34;12.93;;;5.63;;
67456;SDS011;54319;52.038;4.640;2023-03-21T12:59:11;12.95;;;5.88;;
67456;SDS011;54319;52.038;4.640;2023-03-21T13:01:48;9.27;;;5.95;;
67456;SDS011;54319;52.038;4.640;2023-03-21T13:07:04;10.45;;;6.25;;
67456;SDS011;54319;52.038;4.640;2023-03-21T13:09:35;11.35;;;5.97;;
67456;SDS011;54319;52.038;4.640;2023-03-21T13:12:06;11.07;;;6.38;;
67456;SDS011;54319;52.038;4.640;2023-03-21T13:14:47;13.98;;;6.53;;
67456;SDS011;54319;52.038;4.640;2023-03-21T13:17:26;10.38;;;5.68;;
67456;SDS011;54319;52.038;4.640;2023-03-21T13:20:00;13.07;;;5.88;;
67456;SDS011;54319;52.038;4.640;2023-03-21T13:22:34;10.45;;;5.75;;
67456;SDS011;54319;52.038;4.640;2023-03-21T13:25:02;13.23;;;5.90;;
67456;SDS011;54319;52.038;4.640;2023-03-21T13:27:33;6.97;;;4.88;;
67456;SDS011;54319;52.038;4.640;2023-03-21T13:30:03;10.18;;;5.45;;
67456;SDS011;54319;52.038;4.640;2023-03-21T13:32:33;10.05;;;5.78;;
67456;SDS011;54319;52.038;4.640;2023-03-21T13:35:02;8.73;;;5.57;;
67456;SDS011;54319;52.038;4.640;2023-03-21T13:37:42;8.60;;;5.13;;
67456;SDS011;54319;52.038;4.640;2023-03-21T13:40:20;12.15;;;5.30;;
67456;SDS011;54319;52.038;4.640;2023-03-21T13:42:50;9.15;;;5.70;;
67456;SDS011;54319;52.038;4.640;2023-03-21T13:45:24;11.63;;;5.32;;
67456;SDS011;54319;52.038;4.640;2023-03-21T13:47:53;10.23;;;4.88;;
67456;SDS011;54319;52.038;4.640;2023-03-21T13:50:35;9.85;;;5.35;;
67456;SDS011;54319;52.038;4.640;2023-03-21T13:53:19;12.15;;;5.45;;
67456;SDS011;54319;52.038;4.640;2023-03-21T13:55:56;9.23;;;4.75;;
67456;SDS011;54319;52.038;4.640;2023-03-21T13:58:36;11.55;;;5.00;;
67456;SDS011;54319;52.038;4.640;2023-03-21T14:01:08;11.80;;;5.20;;
67456;SDS011;54319;52.038;4.640;2023-03-21T14:03:46;11.65;;;4.78;;
67456;SDS011;54319;52.038;4.640;2023-03-21T14:06:13;9.85;;;5.35;;
67456;SDS011;54319;52.038;4.640;2023-03-21T14:08:44;8.90;;;5.68;;
67456;SDS011;54319;52.038;4.640;2023-03-21T14:11:13;9.93;;;5.80;;
67456;SDS011;54319;52.038;4.640;2023-03-21T14:13:42;8.65;;;5.78;;
67456;SDS011;54319;52.038;4.640;2023-03-21T14:16:12;11.07;;;5.85;;
67456;SDS011;54319;52.038;4.640;2023-03-21T14:18:42;17.65;;;5.65;;
67456;SDS011;54319;52.038;4.640;2023-03-21T14:21:16;9.95;;;5.90;;
67456;SDS011;54319;52.038;4.640;2023-03-21T14:23:45;8.88;;;5.53;;
67456;SDS011;54319;52.038;4.640;2023-03-21T14:26:12;14.88;;;6.30;;
67456;SDS011;54319;52.038;4.640;2023-03-21T14:28:41;12.75;;;6.00;;
67456;SDS011;54319;52.038;4.640;2023-03-21T14:31:15;10.57;;;5.47;;
67456;SDS011;54319;52.038;4.640;2023-03-21T14:33:45;8.85;;;5.00;;
67456;SDS011;54319;52.038;4.640;2023-03-21T14:36:16;8.85;;;5.28;;
67456;SDS011;54319;52.038;4.640;2023-03-21T14:38:54;9.20;;;5.00;;
67456;SDS011;54319;52.038;4.640;2023-03-21T14:41:24;10.85;;;5.13;;
67456;SDS011;54319;52.038;4.640;2023-03-21T14:44:01;11.13;;;5.82;;
67456;SDS011;54319;52.038;4.640;2023-03-21T14:46:47;6.43;;;4.50;;
67456;SDS011;54319;52.038;4.640;2023-03-21T14:49:23;11.75;;;5.20;;
67456;SDS011;54319;52.038;4.640;2023-03-21T14:51:52;9.52;;;5.22;;
67456;SDS011;54319;52.038;4.640;2023-03-21T14:54:21;8.77;;;4.90;;
67456;SDS011;54319;52.038;4.640;2023-03-21T14:59:18;10.30;;;5.45;;
67456;SDS011;54319;52.038;4.640;2023-03-21T15:01:50;8.93;;;5.43;;
67456;SDS011;54319;52.038;4.640;2023-03-21T15:04:19;8.48;;;5.40;;
67456;SDS011;54319;52.038;4.640;2023-03-21T15:06:47;7.68;;;5.10;;
67456;SDS011;54319;52.038;4.640;2023-03-21T15:09:15;12.85;;;5.57;;
67456;SDS011;54319;52.038;4.640;2023-03-21T15:11:47;8.32;;;4.85;;
67456;SDS011;54319;52.038;4.640;2023-03-21T15:14:16;9.27;;;5.05;;
67456;SDS011;54319;52.038;4.640;2023-03-21T15:16:44;8.65;;;5.03;;